logo
Search for airport 
image banner adimage banner adimage banner ad
image banner ad

YXHH - Royal Hobart Hospital

Located in , Australia

ICAO - , IATA -

Data provided by Airmate  

General information

Coordinates: S42°52'47" E147°19'50"
Elevation is 61 feet MSL.
 
View others Airports in Tasmania

Operational data

Special qualification required
Current time UTC:
Current local time:
Weather at : YMHB - Hobart ( 15 km )
METAR: YMHB 172330Z 33013KT 9999 FEW040 BKN180 06/01 Q1031 RF00.0/000.0
TAF: TAF AMD YMHB 172332Z 1800/1900 31012KT CAVOK FM180900 34015KT 9999 SCT035 FM181600 29012KT 9999 -SHRA SCT025 BKN035 FM182200 25008KT 9999 -SHRA SCT030
View NOTAMs / SUP AIP / TFR affecting this airport [VIEW]
Communications frequencies: [VIEW]

Runways:

Airport contact information

Address: Australia

Satellite view of YXHH